Skip Navigation Links Skip Navigation Links

Current Weather

Greater Rockford, Rockford, Ill.

For information only: do not use for flight planning or navigation.
Latest weather
Observation time Tuesday, September 28, 2021 4:54 AM CDT
Local time Tuesday, September 28, 2021 5:24 AM CDT
Flight conditions Visual Meteorological Conditions
Winds
Wind direction North (10°)
Wind speed 5 mph
Visibility 10 mi.
Sky condition
Ceiling unlimited
Sky clear
Temperature 54°F
Dewpoint 49°F
Altimeter 29.98 in.Hg
Derived measurements
Relative humidity 83%
Density altitude 509 ft.
Sea-level pressure 29.97 in.Hg
Remarks
Automated weather observing station with precipitation discriminator.
METAR KRFD 280954Z 01004KT 10SM CLR 12/09 A2998 RMK AO2 SLP149 T01220094

Settings

Location code

InnerDrive.Weather 4.0.6770.0 Release CLR 4.0.30319.42000
Copyright ©2018 Inner Drive Technology. All rights reserved. Portions Copyright ©1986-2018 David Braverman.

Find weather

Site navigation


Skip Navigation Links

Place info

Page info

PayPal - The safer, easier way to pay online!

Return home.

Copyright ©2021 Inner Drive Technology. Purveyors of fine, hand-crafted computer software. Page printed 2021-09-28T10:24:40 UTC.